This is the latest recevied weather packets stored in our database for station/object IQ8VX-3. If no packets are shown the sender has not sent any weather packets the latest 10 day(s).
| Time | Temp. | Humidity | Pressure | Rain* | Wind** | Luminosity | Snow |
|---|---|---|---|---|---|---|---|
| 1777287331 | 20° C | 77% | 1708 hPa | - | - | - | - |
| 1777286131 | 19.44° C | 79% | 1706.2 hPa | - | - | - | - |
| 1777284931 | 18.89° C | 78% | 1705 hPa | - | - | - | - |
| 1777283730 | 18.89° C | 79% | 1704.3 hPa | - | - | - | - |
| 1777282530 | 18.89° C | 77% | 1704.8 hPa | - | - | - | - |
| 1777281330 | 18.33° C | 80% | 1703.6 hPa | - | - | - | - |
| 1777280129 | 18.33° C | 81% | 1704 hPa | - | - | - | - |
| 1777278929 | 18.33° C | 79% | 1704 hPa | - | - | - | - |
| 1777277729 | 18.89° C | 77% | 1705.1 hPa | - | - | - | - |
| 1777276529 | 20.56° C | 72% | 1708.7 hPa | - | - | - | - |
| 1777275328 | 22.22° C | 69% | 1714.2 hPa | - | - | - | - |
| 1777274128 | 19.44° C | 72% | 1706.9 hPa | - | - | - | - |
| 1777272928 | 19.44° C | 75% | 1705.8 hPa | - | - | - | - |
| 1777271727 | 20° C | 77% | 1709 hPa | - | - | - | - |
| 1777270527 | 18.33° C | 76% | 1702.8 hPa | - | - | - | - |
| 1777269327 | 20° C | 66% | 1707 hPa | - | - | - | - |
| 1777268126 | 23.89° C | 66% | 1719.5 hPa | - | - | - | - |
| 1777266926 | 17.78° C | 87% | 1703.4 hPa | - | - | - | - |
| 1777265726 | 14.44° C | 95% | 1693.1 hPa | - | - | - | - |
| 1777264525 | 13.89° C | 95% | 1691.3 hPa | - | - | - | - |
| 1777263325 | 13.33° C | 94% | 1690.5 hPa | - | - | - | - |
| 1777262125 | 13.89° C | 95% | 1691.2 hPa | - | - | - | - |
| 1777260924 | 13.89° C | 96% | 1692.5 hPa | - | - | - | - |
| 1777259724 | 13.89° C | 96% | 1692.3 hPa | - | - | - | - |
| 1777258524 | 13.89° C | 95% | 1692.5 hPa | - | - | - | - |
* Rain since midnight (hover to see other rain measurements)
** Current wind speed in m/s (hover to see current wind gust speed)